Time;durP1;ratioP1;P1;durP2;ratioP2;P2;SDS_P1;SDS_P2;PMS_P1;PMS_P2;Temp;Humidity;BMP_temperature;BMP_pressure;BME280_temperature;BME280_humidity;BME280_pressure;Samples;Min_cycle;Max_cycle;Signal;HPM_P1;HPM_P2
2023/04/03 00:00:07;;;;;;;27.33;13.70;;;;;;;;;;5073709;28;20118;-80
2023/04/03 00:02:32;;;;;;;29.92;14.32;;;;;;;;;;5072831;28;20060;-81
2023/04/03 00:04:58;;;;;;;29.67;14.55;;;;;;;;;;5073694;28;20079;-80
2023/04/03 00:07:23;;;;;;;27.90;14.35;;;;;;;;;;5073709;28;20210;-80
2023/04/03 00:09:49;;;;;;;31.83;15.43;;;;;;;;;;5066705;28;20075;-80
2023/04/03 00:12:15;;;;;;;28.60;14.18;;;;;;;;;;5073381;28;20039;-80
2023/04/03 00:14:40;;;;;;;33.47;15.20;;;;;;;;;;5073510;28;20452;-80
2023/04/03 00:17:06;;;;;;;32.25;16.02;;;;;;;;;;5073434;28;20029;-80
2023/04/03 00:19:31;;;;;;;30.95;14.70;;;;;;;;;;5072230;28;20369;-79
2023/04/03 00:21:57;;;;;;;27.90;14.73;;;;;;;;;;5073356;28;20028;-80
2023/04/03 00:24:22;;;;;;;31.73;14.48;;;;;;;;;;5073132;28;20389;-80
2023/04/03 00:26:47;;;;;;;32.40;15.60;;;;;;;;;;5055828;28;20032;-80
2023/04/03 00:29:13;;;;;;;36.63;15.80;;;;;;;;;;5072372;28;20031;-81
2023/04/03 00:31:38;;;;;;;29.70;15.40;;;;;;;;;;5072108;28;20029;-80
2023/04/03 00:34:04;;;;;;;32.92;16.08;;;;;;;;;;5073194;28;20025;-81
2023/04/03 00:36:30;;;;;;;31.65;14.98;;;;;;;;;;5055345;28;20056;-79
2023/04/03 00:38:55;;;;;;;32.17;15.70;;;;;;;;;;5071774;28;20020;-79
2023/04/03 00:41:21;;;;;;;33.53;15.60;;;;;;;;;;5073382;28;20339;-79
2023/04/03 00:43:46;;;;;;;28.38;14.93;;;;;;;;;;5073223;28;20067;-78
2023/04/03 00:46:12;;;;;;;27.33;14.18;;;;;;;;;;5073656;28;20036;-79
2023/04/03 00:48:37;;;;;;;27.73;15.27;;;;;;;;;;5072234;28;20032;-79
2023/04/03 00:51:04;;;;;;;26.30;14.68;;;;;;;;;;5072083;28;20040;-78
2023/04/03 00:53:43;;;;;;;29.95;14.90;;;;;;;;;;5055461;28;20024;-79
2023/04/03 00:56:10;;;;;;;26.77;14.88;;;;;;;;;;5075894;28;20086;-78
2023/04/03 00:58:38;;;;;;;29.38;14.80;;;;;;;;;;5059121;28;20058;-79
2023/04/03 01:01:06;;;;;;;28.33;13.93;;;;;;;;;;5058899;28;20035;-80
2023/04/03 01:03:32;;;;;;;27.42;13.65;;;;;;;;;;5059690;28;20103;-80
2023/04/03 01:05:57;;;;;;;26.40;13.60;;;;;;;;;;5076699;28;20476;-78
2023/04/03 01:08:23;;;;;;;28.30;13.55;;;;;;;;;;5075427;28;20025;-81
2023/04/03 01:10:49;;;;;;;33.50;15.10;;;;;;;;;;5055175;28;20027;-81
2023/04/03 01:13:26;;;;;;;32.33;14.82;;;;;;;;;;5075163;28;20024;-81
2023/04/03 01:15:51;;;;;;;30.73;13.70;;;;;;;;;;5058928;28;20083;-81
2023/04/03 01:18:17;;;;;;;26.50;13.40;;;;;;;;;;5075279;28;20446;-80
2023/04/03 01:21:10;;;;;;;23.13;11.98;;;;;;;;;;5076185;28;20017;-80
2023/04/03 01:23:47;;;;;;;27.88;13.35;;;;;;;;;;5076646;28;20032;-80
2023/04/03 01:26:12;;;;;;;30.15;12.95;;;;;;;;;;5075060;28;20025;-80
2023/04/03 01:28:38;;;;;;;31.77;13.00;;;;;;;;;;5058349;28;20020;-81
2023/04/03 01:31:31;;;;;;;23.83;11.93;;;;;;;;;;5075268;28;20040;-80
2023/04/03 01:33:56;;;;;;;23.90;11.45;;;;;;;;;;5058086;28;20413;-80
2023/04/03 01:36:26;;;;;;;25.08;11.63;;;;;;;;;;5075755;28;20036;-80
2023/04/03 01:38:52;;;;;;;22.80;11.00;;;;;;;;;;5042165;28;20028;-80
2023/04/03 01:41:17;;;;;;;22.00;10.48;;;;;;;;;;5074779;28;20926;-80
2023/04/03 01:43:43;;;;;;;20.35;10.23;;;;;;;;;;5075239;28;20422;-80
2023/04/03 01:46:08;;;;;;;25.98;10.07;;;;;;;;;;5058206;28;20025;-80
2023/04/03 01:48:34;;;;;;;18.33;9.32;;;;;;;;;;5074736;28;20066;-80
2023/04/03 01:51:00;;;;;;;17.90;9.20;;;;;;;;;;5085116;28;20036;-80
2023/04/03 01:53:25;;;;;;;18.40;9.43;;;;;;;;;;5095962;28;20028;-81
2023/04/03 01:55:50;;;;;;;18.80;9.13;;;;;;;;;;5096023;28;20077;-80
2023/04/03 01:58:16;;;;;;;19.75;9.88;;;;;;;;;;5061267;28;20081;-80
2023/04/03 02:00:41;;;;;;;17.42;9.48;;;;;;;;;;5044843;28;20035;-80
2023/04/03 02:03:07;;;;;;;20.83;9.77;;;;;;;;;;5096056;28;20031;-81
2023/04/03 02:05:32;;;;;;;18.20;9.10;;;;;;;;;;5060698;28;20118;-80
2023/04/03 02:07:58;;;;;;;21.65;9.70;;;;;;;;;;5061260;28;20035;-81
2023/04/03 02:10:23;;;;;;;17.98;9.10;;;;;;;;;;5095775;28;20512;-80
2023/04/03 02:12:49;;;;;;;19.05;8.63;;;;;;;;;;5068697;28;20119;-80
2023/04/03 02:15:15;;;;;;;17.52;9.27;;;;;;;;;;5057505;28;20166;-80
2023/04/03 02:17:40;;;;;;;18.92;8.80;;;;;;;;;;5075288;28;20069;-79
2023/04/03 02:20:06;;;;;;;18.80;8.40;;;;;;;;;;5057313;28;20029;-80
2023/04/03 02:22:31;;;;;;;16.98;8.15;;;;;;;;;;5024098;28;20415;-80
2023/04/03 02:24:57;;;;;;;24.10;8.32;;;;;;;;;;5040721;28;20158;-79
2023/04/03 02:27:23;;;;;;;16.75;8.65;;;;;;;;;;5040827;28;20090;-80
2023/04/03 02:29:48;;;;;;;16.45;7.70;;;;;;;;;;5075008;28;20461;-80
2023/04/03 02:32:13;;;;;;;18.40;8.40;;;;;;;;;;5057008;28;20028;-81
2023/04/03 02:34:39;;;;;;;18.83;8.85;;;;;;;;;;5056792;28;20021;-81
2023/04/03 02:37:05;;;;;;;20.15;9.40;;;;;;;;;;5057056;28;20450;-81
2023/04/03 02:39:30;;;;;;;19.05;8.68;;;;;;;;;;5075102;28;20480;-80
2023/04/03 02:41:55;;;;;;;18.33;9.23;;;;;;;;;;5075034;28;20094;-81
2023/04/03 02:44:21;;;;;;;25.30;9.10;;;;;;;;;;5074983;28;20021;-81
2023/04/03 02:46:46;;;;;;;21.88;9.13;;;;;;;;;;5057012;28;20454;-79
2023/04/03 02:49:12;;;;;;;19.15;9.73;;;;;;;;;;5074491;28;20028;-81
2023/04/03 02:51:37;;;;;;;23.27;9.88;;;;;;;;;;5040073;28;20040;-78
2023/04/03 02:54:03;;;;;;;25.85;10.73;;;;;;;;;;5056787;28;20031;-78
2023/04/03 02:56:28;;;;;;;20.55;9.70;;;;;;;;;;5074659;28;20029;-79
2023/04/03 02:58:54;;;;;;;23.77;10.27;;;;;;;;;;5056574;28;20025;-79
2023/04/03 03:01:20;;;;;;;21.77;10.52;;;;;;;;;;5056758;28;20020;-79
2023/04/03 03:03:45;;;;;;;20.40;10.75;;;;;;;;;;5056388;28;20533;-81
2023/04/03 03:06:13;;;;;;;21.85;10.68;;;;;;;;;;5056715;28;20128;-82
2023/04/03 03:08:38;;;;;;;30.45;12.23;;;;;;;;;;5056823;28;20028;-79
2023/04/03 03:11:04;;;;;;;23.25;11.38;;;;;;;;;;5056561;28;20039;-78
2023/04/03 03:13:29;;;;;;;28.65;12.40;;;;;;;;;;5052496;28;20102;-79
2023/04/03 03:15:55;;;;;;;26.67;12.75;;;;;;;;;;5021975;28;20025;-79
2023/04/03 03:18:21;;;;;;;27.23;12.57;;;;;;;;;;5035704;28;20134;-79
2023/04/03 03:20:46;;;;;;;29.23;12.90;;;;;;;;;;5036313;28;20025;-79
2023/04/03 03:23:12;;;;;;;33.42;14.27;;;;;;;;;;5020480;28;20036;-81
2023/04/03 03:25:38;;;;;;;34.55;14.75;;;;;;;;;;5054222;28;20029;-81
2023/04/03 03:28:04;;;;;;;42.67;15.23;;;;;;;;;;5036297;28;20041;-81
2023/04/03 03:30:30;;;;;;;42.22;15.00;;;;;;;;;;5036259;28;20351;-81
2023/04/03 03:32:55;;;;;;;37.60;16.45;;;;;;;;;;5035962;28;20025;-81
2023/04/03 03:35:21;;;;;;;32.33;13.57;;;;;;;;;;5036205;28;20086;-81
2023/04/03 03:37:49;;;;;;;28.70;13.07;;;;;;;;;;5019732;28;20037;-80
2023/04/03 03:40:15;;;;;;;31.67;13.98;;;;;;;;;;5036077;28;20025;-80
2023/04/03 03:42:40;;;;;;;34.10;13.82;;;;;;;;;;5053767;28;20027;-80
2023/04/03 03:45:06;;;;;;;34.67;14.70;;;;;;;;;;5036078;28;20037;-79
2023/04/03 03:47:31;;;;;;;35.03;13.70;;;;;;;;;;5035706;28;20028;-80
2023/04/03 03:49:57;;;;;;;33.42;14.75;;;;;;;;;;5036504;28;20379;-79
2023/04/03 03:52:23;;;;;;;38.42;15.13;;;;;;;;;;5039938;28;20484;-80
2023/04/03 03:54:48;;;;;;;33.05;14.10;;;;;;;;;;5039269;28;20024;-80
2023/04/03 03:57:14;;;;;;;32.28;14.48;;;;;;;;;;5055873;28;20024;-80
2023/04/03 03:59:40;;;;;;;39.60;16.80;;;;;;;;;;5039346;28;20082;-80
2023/04/03 04:02:06;;;;;;;36.88;16.30;;;;;;;;;;5055931;28;20020;-81
2023/04/03 04:04:31;;;;;;;42.65;16.92;;;;;;;;;;5056039;28;20037;-79
2023/04/03 04:06:57;;;;;;;44.35;17.77;;;;;;;;;;5073754;28;20025;-81
2023/04/03 04:09:22;;;;;;;50.28;18.85;;;;;;;;;;5039117;28;20032;-80
2023/04/03 04:11:47;;;;;;;45.92;18.58;;;;;;;;;;5039202;28;20025;-80
2023/04/03 04:14:13;;;;;;;44.92;18.23;;;;;;;;;;5039228;28;20031;-81
2023/04/03 04:16:38;;;;;;;37.60;16.20;;;;;;;;;;5055444;28;20032;-79
2023/04/03 04:19:04;;;;;;;39.88;16.25;;;;;;;;;;5055620;28;20028;-80
2023/04/03 04:21:30;;;;;;;43.42;18.40;;;;;;;;;;5039195;28;20028;-81
2023/04/03 04:23:55;;;;;;;44.67;17.58;;;;;;;;;;5038786;28;20028;-79
2023/04/03 04:26:20;;;;;;;51.25;19.38;;;;;;;;;;5073387;28;20115;-79
2023/04/03 04:28:46;;;;;;;40.80;18.30;;;;;;;;;;5041120;28;20067;-78
2023/04/03 04:31:11;;;;;;;46.58;18.75;;;;;;;;;;5059572;28;20063;-80
2023/04/03 04:33:40;;;;;;;42.85;17.83;;;;;;;;;;5077508;28;20495;-80
2023/04/03 04:36:05;;;;;;;50.47;19.77;;;;;;;;;;5077500;28;20086;-81
2023/04/03 04:38:31;;;;;;;54.50;21.42;;;;;;;;;;5042672;28;20450;-80
2023/04/03 04:40:56;;;;;;;46.78;18.77;;;;;;;;;;5077057;28;20086;-80
2023/04/03 04:43:21;;;;;;;45.08;18.40;;;;;;;;;;5076900;28;20098;-80
2023/04/03 04:45:47;;;;;;;43.38;17.45;;;;;;;;;;5059192;28;20383;-80
2023/04/03 04:48:12;;;;;;;42.33;17.80;;;;;;;;;;5077205;28;20056;-80
2023/04/03 04:50:38;;;;;;;45.97;18.30;;;;;;;;;;5059517;28;20127;-80
2023/04/03 04:53:04;;;;;;;50.47;17.75;;;;;;;;;;5059153;28;20126;-80
2023/04/03 04:55:29;;;;;;;48.85;18.38;;;;;;;;;;5060090;28;20028;-80
2023/04/03 04:57:55;;;;;;;49.42;19.83;;;;;;;;;;5077746;28;20090;-80
2023/04/03 05:00:21;;;;;;;49.65;19.27;;;;;;;;;;5060682;28;20506;-80
2023/04/03 05:02:46;;;;;;;50.40;19.30;;;;;;;;;;5044542;28;20472;-80
2023/04/03 05:05:11;;;;;;;50.90;18.48;;;;;;;;;;5059709;28;20346;-80
2023/04/03 05:07:37;;;;;;;43.15;18.23;;;;;;;;;;5059052;28;20389;-79
2023/04/03 05:10:03;;;;;;;46.95;18.40;;;;;;;;;;5058936;28;20040;-80
2023/04/03 05:12:29;;;;;;;44.25;17.80;;;;;;;;;;5058736;28;20081;-80
2023/04/03 05:14:54;;;;;;;50.20;18.27;;;;;;;;;;5058726;28;20028;-80
2023/04/03 05:17:20;;;;;;;46.17;18.00;;;;;;;;;;5039090;28;20036;-80
2023/04/03 05:19:45;;;;;;;48.60;18.33;;;;;;;;;;5041750;28;20028;-80
2023/04/03 05:22:10;;;;;;;52.67;18.77;;;;;;;;;;5041886;28;20028;-80
2023/04/03 05:24:36;;;;;;;47.88;18.75;;;;;;;;;;5058298;28;20437;-80
2023/04/03 05:27:01;;;;;;;49.75;17.90;;;;;;;;;;5058088;28;20039;-80
2023/04/03 05:29:27;;;;;;;49.03;18.65;;;;;;;;;;5058355;28;20035;-81
2023/04/03 05:31:52;;;;;;;44.85;19.50;;;;;;;;;;5041878;28;20067;-80
2023/04/03 05:34:18;;;;;;;48.42;17.58;;;;;;;;;;5041584;28;20024;-78
2023/04/03 05:36:43;;;;;;;39.10;17.60;;;;;;;;;;5041582;28;20028;-81
2023/04/03 05:39:09;;;;;;;39.35;16.98;;;;;;;;;;5024498;28;20480;-79
2023/04/03 05:41:35;;;;;;;33.80;15.40;;;;;;;;;;5057632;28;20025;-79
2023/04/03 05:44:00;;;;;;;40.80;15.35;;;;;;;;;;5058072;28;20040;-81
2023/04/03 05:46:25;;;;;;;33.17;14.45;;;;;;;;;;5058099;28;20036;-80
2023/04/03 05:48:51;;;;;;;31.25;13.23;;;;;;;;;;5026005;28;20121;-81
2023/04/03 05:51:25;;;;;;;36.90;13.50;;;;;;;;;;5024828;28;20511;-81
2023/04/03 05:53:59;;;;;;;30.50;12.00;;;;;;;;;;5058386;28;20422;-81
2023/04/03 05:56:25;;;;;;;32.13;12.30;;;;;;;;;;5058992;28;20024;-82
2023/04/03 05:58:50;;;;;;;24.15;10.77;;;;;;;;;;5076169;28;20028;-81
2023/04/03 06:01:16;;;;;;;23.40;9.52;;;;;;;;;;5025396;28;20108;-81
2023/04/03 06:03:42;;;;;;;25.23;8.73;;;;;;;;;;5076203;28;20072;-81
2023/04/03 06:06:07;;;;;;;21.63;8.48;;;;;;;;;;5058178;28;20145;-86
2023/04/03 06:08:33;;;;;;;16.52;7.40;;;;;;;;;;5025701;28;20024;-87
2023/04/03 06:10:59;;;;;;;15.00;7.05;;;;;;;;;;5057776;28;20028;-86
2023/04/03 06:13:24;;;;;;;14.40;6.75;;;;;;;;;;5024931;28;20063;-87
2023/04/03 06:15:50;;;;;;;64.10;31.10;;;;;;;;;;5025080;28;20043;-85
2023/04/03 06:18:15;;;;;;;18.52;10.30;;;;;;;;;;5041967;28;20043;-87
2023/04/03 06:20:41;;;;;;;35.95;24.45;;;;;;;;;;5056786;28;20406;-86
2023/04/03 06:23:06;;;;;;;26.17;19.20;;;;;;;;;;5076204;28;20024;-87
2023/04/03 06:28:19;;;;;;;12.75;8.25;;;;;;;;;;5081749;22;20045;-87
2023/04/03 06:31:55;;;;;;;19.27;9.18;;;;;;;;;;5042811;28;20123;-87
2023/04/03 06:34:48;;;;;;;13.55;7.10;;;;;;;;;;4978161;28;20070;-87
2023/04/03 06:37:17;;;;;;;19.38;11.00;;;;;;;;;;4995131;28;20053;-86
2023/04/03 06:40:10;;;;;;;16.55;8.68;;;;;;;;;;5037018;28;20044;-86
2023/04/03 06:42:36;;;;;;;15.10;9.38;;;;;;;;;;5040028;28;20041;-86
2023/04/03 06:45:25;;;;;;;14.38;7.38;;;;;;;;;;5005677;28;20128;-86
2023/04/03 06:47:51;;;;;;;12.75;6.78;;;;;;;;;;5053238;28;20059;-85
2023/04/03 06:51:12;;;;;;;12.18;6.53;;;;;;;;;;5017939;28;20032;-88
2023/04/03 06:53:50;;;;;;;15.32;6.55;;;;;;;;;;4964314;28;20097;-86
2023/04/03 06:56:16;;;;;;;12.82;6.57;;;;;;;;;;5021104;28;20086;-87
2023/04/03 06:58:54;;;;;;;12.27;6.63;;;;;;;;;;5046452;28;20044;-88
2023/04/03 07:01:20;;;;;;;11.20;6.72;;;;;;;;;;5043818;28;20507;-85
2023/04/03 07:03:46;;;;;;;13.82;7.15;;;;;;;;;;5057583;28;20028;-87
2023/04/03 07:06:12;;;;;;;13.07;7.03;;;;;;;;;;5058325;28;20077;-85
2023/04/03 07:08:38;;;;;;;15.25;8.63;;;;;;;;;;5040790;28;20480;-86
2023/04/03 07:11:04;;;;;;;14.48;8.10;;;;;;;;;;5040857;28;20028;-86
2023/04/03 07:13:30;;;;;;;94.75;42.20;;;;;;;;;;5075131;28;20020;-86
2023/04/03 07:15:55;;;;;;;23.85;10.93;;;;;;;;;;5043319;28;20468;-87
2023/04/03 07:18:21;;;;;;;67.15;36.50;;;;;;;;;;5057773;28;20146;-85
2023/04/03 07:20:46;;;;;;;34.08;16.52;;;;;;;;;;5041332;28;20054;-84
2023/04/03 07:23:12;;;;;;;18.80;8.55;;;;;;;;;;5024166;28;20029;-85
2023/04/03 07:25:43;;;;;;;23.15;10.23;;;;;;;;;;5031626;28;20036;-87
2023/04/03 07:28:08;;;;;;;60.85;20.63;;;;;;;;;;5072929;28;20040;-87
2023/04/03 07:30:34;;;;;;;25.45;12.77;;;;;;;;;;5040506;28;20032;-86
2023/04/03 07:32:59;;;;;;;40.08;10.60;;;;;;;;;;5039975;28;20034;-86
2023/04/03 07:35:25;;;;;;;23.23;9.05;;;;;;;;;;5073292;28;20024;-87
2023/04/03 07:37:53;;;;;;;18.98;8.93;;;;;;;;;;5073097;28;20347;-88
2023/04/03 07:40:18;;;;;;;24.95;8.00;;;;;;;;;;5076482;28;20165;-88
2023/04/03 07:42:54;;;;;;;14.75;7.57;;;;;;;;;;5075658;28;20059;-90
2023/04/03 07:45:35;;;;;;;19.38;7.97;;;;;;;;;;5056693;28;20024;-90
2023/04/03 07:51:01;;;;;;;29.58;8.05;;;;;;;;;;5075456;22;20143;-76
2023/04/03 07:53:28;;;;;;;29.50;8.30;;;;;;;;;;5057200;28;20105;-75
2023/04/03 07:55:56;;;;;;;22.05;7.10;;;;;;;;;;5073091;28;20044;-76
2023/04/03 07:58:21;;;;;;;30.38;8.32;;;;;;;;;;5074066;28;20036;-76
2023/04/03 08:00:47;;;;;;;16.73;8.63;;;;;;;;;;5073839;28;20036;-74
2023/04/03 08:03:13;;;;;;;18.33;9.00;;;;;;;;;;5077521;28;20033;-75
2023/04/03 08:05:42;;;;;;;25.73;10.98;;;;;;;;;;5062438;28;20089;-76
2023/04/03 08:08:10;;;;;;;18.92;8.80;;;;;;;;;;5062347;28;20036;-75
2023/04/03 08:10:37;;;;;;;21.63;10.82;;;;;;;;;;5080751;28;20454;-74
2023/04/03 08:13:03;;;;;;;28.73;15.32;;;;;;;;;;5075064;28;20105;-73
2023/04/03 08:15:29;;;;;;;19.23;7.32;;;;;;;;;;5062660;28;20534;-76
2023/04/03 08:17:55;;;;;;;20.58;7.90;;;;;;;;;;5063129;28;20027;-73
2023/04/03 08:20:20;;;;;;;20.10;6.38;;;;;;;;;;5080620;28;20367;-76
2023/04/03 08:22:48;;;;;;;20.00;6.65;;;;;;;;;;5080315;28;20032;-75
2023/04/03 08:25:15;;;;;;;14.90;6.47;;;;;;;;;;5080913;28;20055;-75
2023/04/03 08:27:40;;;;;;;20.88;6.72;;;;;;;;;;5076801;28;20033;-76
2023/04/03 08:30:08;;;;;;;15.02;5.57;;;;;;;;;;5080118;28;20029;-74
2023/04/03 08:32:34;;;;;;;12.57;6.25;;;;;;;;;;5080207;28;20040;-75
2023/04/03 08:35:00;;;;;;;18.95;7.07;;;;;;;;;;5080201;28;20028;-75
2023/04/03 08:37:27;;;;;;;13.68;6.00;;;;;;;;;;5080233;28;20040;-75
2023/04/03 08:39:53;;;;;;;18.27;7.88;;;;;;;;;;5079760;28;20381;-75
2023/04/03 08:42:52;;;;;;;18.08;6.00;;;;;;;;;;5080457;28;20126;-75
2023/04/03 08:45:34;;;;;;;;;;;;;;;;;;5080800;28;20040;-74
2023/04/03 08:48:01;;;;;;;16.17;5.15;;;;;;;;;;5079659;28;20314;-76
2023/04/03 08:50:37;;;;;;;24.17;11.57;;;;;;;;;;5090437;28;20051;-75
2023/04/03 08:53:04;;;;;;;17.95;9.10;;;;;;;;;;5082820;28;20032;-76
2023/04/03 08:55:37;;;;;;;31.98;11.55;;;;;;;;;;5066396;28;20195;-74
2023/04/03 08:58:04;;;;;;;21.25;6.57;;;;;;;;;;5083026;28;20419;-76
2023/04/03 09:00:37;;;;;;;12.88;5.10;;;;;;;;;;5100577;28;20515;-76
2023/04/03 09:03:02;;;;;;;12.73;5.35;;;;;;;;;;5083069;28;20036;-74
2023/04/03 09:05:49;;;;;;;16.55;5.85;;;;;;;;;;5100568;28;20353;-74
2023/04/03 09:08:27;;;;;;;10.05;5.45;;;;;;;;;;5100422;28;20083;-74
2023/04/03 09:11:00;;;;;;;50.75;30.25;;;;;;;;;;5065278;28;20093;-76
2023/04/03 09:13:52;;;;;;;15.27;9.05;;;;;;;;;;5100555;28;20035;-77
2023/04/03 09:16:41;;;;;;;13.45;6.68;;;;;;;;;;5092690;28;20085;-75
2023/04/03 09:19:20;;;;;;;20.08;7.70;;;;;;;;;;5078572;28;20168;-76
2023/04/03 09:21:46;;;;;;;18.10;9.30;;;;;;;;;;5078732;28;20114;-74
2023/04/03 09:24:13;;;;;;;9.68;5.57;;;;;;;;;;5096963;28;20059;-75
2023/04/03 09:26:59;;;;;;;10.50;4.85;;;;;;;;;;5096844;28;20432;-76
2023/04/03 09:29:25;;;;;;;8.80;4.47;;;;;;;;;;5096915;28;20028;-76
2023/04/03 09:31:55;;;;;;;10.15;4.53;;;;;;;;;;5091505;28;20028;-75
2023/04/03 09:34:32;;;;;;;8.85;4.43;;;;;;;;;;5078418;28;20035;-76
2023/04/03 09:36:59;;;;;;;8.40;3.85;;;;;;;;;;5078883;28;20099;-75
2023/04/03 09:39:27;;;;;;;8.55;3.90;;;;;;;;;;5096699;28;20423;-75
2023/04/03 09:42:25;;;;;;;7.72;3.80;;;;;;;;;;5078592;28;20435;-76
2023/04/03 09:44:58;;;;;;;6.82;4.00;;;;;;;;;;5051206;28;20126;-76
2023/04/03 09:47:30;;;;;;;9.18;3.97;;;;;;;;;;5078312;28;20039;-75
2023/04/03 09:50:13;;;;;;;8.38;3.97;;;;;;;;;;5078693;28;20441;-78
2023/04/03 09:52:43;;;;;;;17.27;4.45;;;;;;;;;;5096401;28;20118;-74
2023/04/03 09:55:20;;;;;;;;;;;;;;;;;;5096900;28;20347;-73
2023/04/03 09:57:46;;;;;;;12.85;3.90;;;;;;;;;;5078172;28;19919;-75
2023/04/03 10:00:21;;;;;;;6.88;3.97;;;;;;;;;;5096218;28;20028;-74
2023/04/03 10:02:50;;;;;;;9.45;4.65;;;;;;;;;;5078166;28;20460;-76
2023/04/03 10:05:44;;;;;;;10.20;4.20;;;;;;;;;;5061637;28;20056;-73
2023/04/03 10:08:16;;;;;;;13.82;4.30;;;;;;;;;;5096259;28;20035;-76
2023/04/03 10:10:42;;;;;;;7.57;4.00;;;;;;;;;;5095947;28;20032;-78
2023/04/03 10:13:11;;;;;;;7.53;4.40;;;;;;;;;;5077842;28;20027;-76
2023/04/03 10:15:42;;;;;;;10.95;4.38;;;;;;;;;;5096406;28;20341;-75
2023/04/03 10:18:46;;;;;;;7.25;4.20;;;;;;;;;;5061187;28;20429;-75
2023/04/03 10:21:39;;;;;;;8.15;4.63;;;;;;;;;;5091931;28;20464;-75
2023/04/03 10:24:27;;;;;;;8.18;4.55;;;;;;;;;;5058367;28;20139;-77
2023/04/03 10:27:00;;;;;;;12.88;4.95;;;;;;;;;;5095499;28;20361;-74
2023/04/03 10:29:31;;;;;;;9.05;4.88;;;;;;;;;;5077990;28;20032;-76
2023/04/03 10:32:10;;;;;;;11.70;5.35;;;;;;;;;;5096229;28;20326;-75
2023/04/03 10:34:43;;;;;;;9.00;4.57;;;;;;;;;;5092174;28;20059;-76
2023/04/03 10:37:28;;;;;;;9.98;5.20;;;;;;;;;;5078124;28;20035;-76
2023/04/03 10:39:54;;;;;;;17.98;8.52;;;;;;;;;;5095286;28;20085;-75
2023/04/03 10:42:35;;;;;;;10.88;5.63;;;;;;;;;;5077290;28;20035;-77
2023/04/03 10:45:16;;;;;;;13.20;6.18;;;;;;;;;;5095069;28;20469;-75
2023/04/03 10:48:05;;;;;;;13.00;5.55;;;;;;;;;;5094775;28;20044;-76
2023/04/03 10:51:00;;;;;;;16.42;5.93;;;;;;;;;;5079882;28;20177;-75
2023/04/03 10:53:51;;;;;;;9.05;5.70;;;;;;;;;;5077308;28;20032;-76
2023/04/03 10:56:26;;;;;;;17.75;6.15;;;;;;;;;;5077140;28;20059;-74
2023/04/03 10:59:07;;;;;;;15.63;6.43;;;;;;;;;;5095250;28;20028;-77
2023/04/03 11:01:37;;;;;;;17.15;6.50;;;;;;;;;;5076738;28;20081;-76
2023/04/03 11:04:04;;;;;;;16.65;5.60;;;;;;;;;;5077087;28;20020;-75
2023/04/03 11:06:46;;;;;;;12.60;5.10;;;;;;;;;;5077127;28;20044;-77
2023/04/03 11:09:31;;;;;;;14.60;5.10;;;;;;;;;;5062475;28;20032;-74
2023/04/03 11:12:02;;;;;;;13.00;4.80;;;;;;;;;;5077257;28;20062;-76
2023/04/03 11:14:31;;;;;;;9.23;4.70;;;;;;;;;;5077463;28;20028;-76
2023/04/03 11:17:18;;;;;;;15.02;5.50;;;;;;;;;;5060578;28;20059;-76
2023/04/03 11:20:18;;;;;;;9.77;4.45;;;;;;;;;;5094992;28;20028;-75
2023/04/03 11:23:04;;;;;;;15.13;5.00;;;;;;;;;;5076755;28;20028;-76
2023/04/03 11:25:32;;;;;;;12.55;4.68;;;;;;;;;;5079444;28;20453;-75
2023/04/03 11:28:06;;;;;;;11.00;6.32;;;;;;;;;;5060524;28;20115;-75
2023/04/03 11:30:48;;;;;;;16.50;4.78;;;;;;;;;;5094700;28;20467;-75
2023/04/03 11:33:32;;;;;;;14.15;6.75;;;;;;;;;;5076771;28;20027;-75
2023/04/03 11:36:07;;;;;;;8.57;4.85;;;;;;;;;;5085352;28;20123;-76
2023/04/03 11:38:39;;;;;;;10.48;4.90;;;;;;;;;;5056350;28;20442;-75
2023/04/03 11:41:05;;;;;;;9.40;5.03;;;;;;;;;;5056427;28;20724;-77
2023/04/03 11:43:31;;;;;;;11.70;5.82;;;;;;;;;;5057045;28;20056;-76
2023/04/03 11:46:02;;;;;;;9.82;5.30;;;;;;;;;;5056143;28;20055;-74
2023/04/03 11:48:33;;;;;;;13.00;5.50;;;;;;;;;;5039970;28;20028;-77
2023/04/03 11:51:00;;;;;;;11.02;5.25;;;;;;;;;;5073631;28;20045;-78
2023/04/03 11:53:27;;;;;;;11.82;5.78;;;;;;;;;;5023166;28;20028;-77
2023/04/03 11:55:56;;;;;;;12.10;5.70;;;;;;;;;;5074056;28;20028;-75
2023/04/03 11:58:26;;;;;;;9.45;5.82;;;;;;;;;;5056271;28;20357;-77
2023/04/03 12:00:53;;;;;;;16.40;6.20;;;;;;;;;;5056452;28;20029;-76
2023/04/03 12:05:55;;;;;;;11.32;6.60;;;;;;;;;;5074436;28;20039;-77
2023/04/03 12:08:29;;;;;;;14.05;6.60;;;;;;;;;;5040140;28;20037;-77
2023/04/03 12:11:13;;;;;;;15.23;7.28;;;;;;;;;;5056320;28;20119;-77
2023/04/03 12:13:42;;;;;;;16.20;6.93;;;;;;;;;;5073790;28;20472;-77
2023/04/03 12:16:22;;;;;;;15.20;7.00;;;;;;;;;;5074183;28;20174;-76
2023/04/03 12:18:51;;;;;;;29.33;6.70;;;;;;;;;;5073833;28;20604;-76
2023/04/03 12:21:27;;;;;;;12.57;6.53;;;;;;;;;;5055776;28;20036;-75
2023/04/03 12:24:07;;;;;;;13.90;7.65;;;;;;;;;;5074406;28;20085;-77
2023/04/03 12:26:51;;;;;;;15.68;7.22;;;;;;;;;;5074045;28;20028;-78
2023/04/03 12:29:34;;;;;;;16.77;7.10;;;;;;;;;;5073146;28;20042;-77
2023/04/03 12:32:24;;;;;;;14.55;7.20;;;;;;;;;;5073965;28;20615;-77
2023/04/03 12:35:13;;;;;;;30.05;7.70;;;;;;;;;;5073942;28;20516;-78
2023/04/03 12:38:16;;;;;;;12.68;7.32;;;;;;;;;;5072947;28;20029;-75
2023/04/03 12:40:42;;;;;;;15.27;7.68;;;;;;;;;;5053569;28;20065;-75
2023/04/03 12:43:19;;;;;;;15.40;7.40;;;;;;;;;;5053068;28;20485;-75
2023/04/03 12:46:00;;;;;;;14.13;7.65;;;;;;;;;;5053716;28;20033;-77
2023/04/03 12:48:27;;;;;;;14.93;7.32;;;;;;;;;;5038717;28;20044;-82
2023/04/03 12:50:54;;;;;;;14.10;7.63;;;;;;;;;;5039807;28;20049;-81
2023/04/03 12:53:25;;;;;;;13.73;7.95;;;;;;;;;;5039796;28;20029;-81
2023/04/03 12:55:58;;;;;;;16.98;7.25;;;;;;;;;;5040749;28;20032;-83
2023/04/03 12:58:27;;;;;;;11.82;7.47;;;;;;;;;;5056919;28;20056;-82
2023/04/03 13:01:12;;;;;;;24.03;8.00;;;;;;;;;;5040766;28;20063;-83
2023/04/03 13:03:40;;;;;;;19.17;8.40;;;;;;;;;;5059883;28;20278;-83
2023/04/03 13:06:06;;;;;;;20.40;8.20;;;;;;;;;;5078087;28;20506;-81
2023/04/03 13:08:32;;;;;;;17.65;7.88;;;;;;;;;;5077575;28;20063;-82
2023/04/03 13:11:09;;;;;;;14.85;7.90;;;;;;;;;;5043252;28;20484;-84
2023/04/03 13:13:35;;;;;;;24.10;8.93;;;;;;;;;;5076159;28;20028;-81
2023/04/03 13:16:09;;;;;;;22.58;8.88;;;;;;;;;;5076172;28;20093;-81
2023/04/03 13:18:34;;;;;;;16.35;8.40;;;;;;;;;;5077409;28;20047;-82
2023/04/03 13:21:16;;;;;;;17.38;9.25;;;;;;;;;;5078040;28;20028;-81
2023/04/03 13:23:44;;;;;;;16.40;8.90;;;;;;;;;;5077897;28;20041;-81
2023/04/03 13:26:09;;;;;;;21.67;9.00;;;;;;;;;;5059873;28;20385;-83
2023/04/03 13:28:36;;;;;;;19.95;8.75;;;;;;;;;;5075657;28;20044;-82
2023/04/03 13:31:14;;;;;;;18.35;9.45;;;;;;;;;;5059267;28;20080;-84
2023/04/03 13:33:52;;;;;;;19.63;9.20;;;;;;;;;;5078598;28;20054;-82
2023/04/03 13:36:19;;;;;;;16.10;9.10;;;;;;;;;;5078086;28;20052;-82
2023/04/03 13:38:45;;;;;;;15.65;8.57;;;;;;;;;;5078325;28;20465;-82
2023/04/03 13:41:51;;;;;;;16.48;8.63;;;;;;;;;;5048820;28;20035;-83
2023/04/03 13:44:22;;;;;;;21.75;8.18;;;;;;;;;;5081955;28;20028;-81
2023/04/03 13:46:52;;;;;;;14.90;8.68;;;;;;;;;;5083949;28;20036;-83
2023/04/03 13:49:37;;;;;;;18.10;8.43;;;;;;;;;;5047195;28;20036;-81
2023/04/03 13:52:22;;;;;;;13.57;8.23;;;;;;;;;;5077678;28;20056;-81
2023/04/03 13:54:48;;;;;;;29.75;8.00;;;;;;;;;;5061527;28;20327;-82
2023/04/03 13:57:15;;;;;;;13.00;7.30;;;;;;;;;;5042739;28;20072;-80
2023/04/03 13:59:41;;;;;;;25.75;13.82;;;;;;;;;;5059434;28;20031;-80
2023/04/03 14:02:14;;;;;;;26.35;14.38;;;;;;;;;;5058431;28;20036;-82
2023/04/03 14:04:49;;;;;;;28.58;14.18;;;;;;;;;;5059188;28;20040;-82
2023/04/03 14:07:19;;;;;;;28.50;15.32;;;;;;;;;;5058934;28;20039;-80
2023/04/03 14:09:45;;;;;;;33.35;14.32;;;;;;;;;;5058340;28;20094;-81
2023/04/03 14:12:29;;;;;;;31.67;14.20;;;;;;;;;;5060647;28;20441;-81
2023/04/03 14:14:58;;;;;;;54.50;19.77;;;;;;;;;;5042702;28;20032;-82
2023/04/03 14:20:45;;;;;;;36.70;22.02;;;;;;;;;;5076784;28;20029;-82
2023/04/03 14:23:14;;;;;;;31.10;18.45;;;;;;;;;;5043106;28;20033;-82
2023/04/03 14:25:40;;;;;;;25.67;13.45;;;;;;;;;;5048643;22;20059;-80
2023/04/03 14:28:22;;;;;;;26.15;13.43;;;;;;;;;;5059008;28;20047;-81
2023/04/03 14:30:49;;;;;;;25.65;13.10;;;;;;;;;;5058610;28;20441;-81
2023/04/03 14:33:17;;;;;;;37.00;13.95;;;;;;;;;;5076362;28;20425;-81
2023/04/03 14:35:43;;;;;;;25.48;14.00;;;;;;;;;;5075600;28;20119;-83
2023/04/03 14:38:25;;;;;;;26.75;14.18;;;;;;;;;;5075597;28;20449;-81
2023/04/03 14:40:50;;;;;;;27.05;13.80;;;;;;;;;;5076026;28;20036;-81
2023/04/03 14:43:16;;;;;;;24.80;12.80;;;;;;;;;;5073194;28;20039;-81
2023/04/03 14:45:42;;;;;;;35.00;13.25;;;;;;;;;;5075464;28;20070;-81
2023/04/03 14:48:19;;;;;;;30.52;14.20;;;;;;;;;;5075748;28;20044;-81
2023/04/03 14:50:45;;;;;;;27.23;13.02;;;;;;;;;;5059056;28;20060;-80
2023/04/03 14:53:11;;;;;;;28.20;13.73;;;;;;;;;;5075268;28;20088;-81
2023/04/03 14:55:37;;;;;;;34.92;14.35;;;;;;;;;;5058238;28;20027;-81